Crew | Aerofun Virtual



 METAR AND TAF INFORMATION
METAR FOR GCFV
ADDS - METARS form results

(2206 UTC 26 February 2020)
Data provider http://aviationweather.gov/metar/data/
 
METAR text: GCFV 262200Z 03016KT 9999 SCT026 19/14 Q1022
Conditions at: GCFV (FUERTEVENTURA AR, ES) observed 2200 UTC 26 February 2020
Temperature: 19.0°C (66°F)
Dewpoint: 14.0°C (57°F) [RH = 73%]
Pressure (altimeter): 30.18 inches Hg (1022.0 mb)
Winds: from the NNE (30 degrees) at 18 MPH (16 knots; 8.2 m/s)
Visibility: 6 or more miles (10+ km)
Ceiling: at least 12,000 feet AGL
Clouds: scattered clouds at 2600 feet AGL
Weather: no significant weather observed at this time

METAR text: GCFV 262130Z 03017KT 9999 SCT020 19/15 Q1022
Conditions at: GCFV (FUERTEVENTURA AR, ES) observed 2130 UTC 26 February 2020
Temperature: 19.0°C (66°F)
Dewpoint: 15.0°C (59°F) [RH = 78%]
Pressure (altimeter): 30.18 inches Hg (1022.0 mb)
Winds: from the NNE (30 degrees) at 20 MPH (17 knots; 8.7 m/s)
Visibility: 6 or more miles (10+ km)
Ceiling: at least 12,000 feet AGL
Clouds: scattered clouds at 2000 feet AGL
Weather: no significant weather observed at this time

Forecast for: GCFV (FUERTEVENTURA AR, ES)
Text: TAF GCFV 262000Z 2621/2721 04014KT 9999 FEW025 TX22/2714Z TN17/2706Z
Forecast period: 2100 UTC 26 February 2020 to 2100 UTC 27 February 2020
Forecast type: FROM: standard forecast or significant change
Winds: from the NE (40 degrees) at 16 MPH (14 knots; 7.2 m/s)
Visibility: 6 or more miles 10+ km)
Ceiling: at least 12,000 feet AGL
Clouds: few clouds at 2500 feet AGL
Weather: no significant weather forecast for this period
Text: PROB40
Forecast period: 0300 to 0900 UTC 27 February 2020
Forecast type: TEMPORARY: The following changes expected for less than half the time period
Winds: from the NNW (340 degrees) at 9 MPH (8 knots; 4.1 m/s)
Visibility: missing
Ceiling: unknown
Clouds: missing
Weather: no significant weather forecast for this period

 AIRPORT MAP

 RUNWAY INFORMATION
Runway 01 Runway length 7874 ft Runway width 148 ft
Runway elevation 37 ft Runway displaced threshold 0 ft Runway heading 2
Runway 19 Runway length 7874 ft Runway width 148 ft
Runway elevation 75 ft Runway displaced threshold 0 ft Runway heading 182

 AIRPORT FREQUENCIES
Type APP Name CANARIAS A Frequency 129.3 MHZ
Type ATIS Name ATIS Frequency 118.65 MHZ
Type GND Name GND Frequency 121.7 MHZ
Type TWR Name TWR Frequency 118.5 MHZ

 AIRPORT NEAR NAVIGATION AIDS
Type VOR-DME Name Fuerteventura Frequency 114100 KHZ